createdAt,value
2022-11-19T00:00:09.375Z,99.74
2022-11-19T00:02:35.769Z,98.99
2022-11-19T00:05:02.146Z,99.03
2022-11-19T00:07:28.503Z,99.21
2022-11-19T00:09:54.887Z,99.25
2022-11-19T00:12:21.213Z,99.05
2022-11-19T00:14:47.559Z,98.78
2022-11-19T00:17:13.878Z,98.64
2022-11-19T00:19:40.256Z,99.20
2022-11-19T00:22:06.573Z,99.39
2022-11-19T00:24:32.961Z,99.19
2022-11-19T00:26:59.325Z,99.19
2022-11-19T00:29:25.662Z,98.58
2022-11-19T00:31:52.065Z,98.98
2022-11-19T00:34:18.436Z,98.50
2022-11-19T00:36:44.791Z,98.22
2022-11-19T00:39:11.163Z,98.48
2022-11-19T00:41:37.473Z,98.41
2022-11-19T00:44:03.824Z,98.41
2022-11-19T00:46:30.146Z,98.69
2022-11-19T00:48:56.534Z,98.10
2022-11-19T00:51:22.864Z,98.20
2022-11-19T00:53:49.213Z,98.24
2022-11-19T00:56:15.590Z,98.27
2022-11-19T00:58:41.979Z,98.22
2022-11-19T01:01:08.412Z,97.96
2022-11-19T01:03:34.724Z,97.72
2022-11-19T01:06:01.080Z,98.02
2022-11-19T01:08:27.422Z,98.05
2022-11-19T01:10:53.783Z,97.92
2022-11-19T01:13:20.195Z,97.92
2022-11-19T01:15:46.515Z,97.57
2022-11-19T01:18:12.901Z,97.70
2022-11-19T01:20:39.278Z,97.65
2022-11-19T01:23:05.590Z,97.83
2022-11-19T01:25:31.946Z,97.45
2022-11-19T01:27:58.288Z,97.80
2022-11-19T01:30:24.655Z,97.80
2022-11-19T01:32:51.035Z,97.59
2022-11-19T01:35:17.390Z,98.06
2022-11-19T01:37:43.808Z,98.21
2022-11-19T01:40:10.128Z,98.41
2022-11-19T01:42:36.517Z,98.53
2022-11-19T01:45:02.878Z,98.27
2022-11-19T01:47:29.225Z,98.28
2022-11-19T01:49:55.591Z,98.47
2022-11-19T01:52:21.941Z,98.09
2022-11-19T01:54:48.327Z,98.21
2022-11-19T01:57:14.707Z,98.52
2022-11-19T01:59:41.099Z,98.11
2022-11-19T02:02:07.472Z,98.17
2022-11-19T02:04:33.831Z,98.31
2022-11-19T02:07:00.297Z,98.34
2022-11-19T02:09:26.598Z,98.23
2022-11-19T02:11:52.951Z,98.17
2022-11-19T02:14:19.278Z,97.96
2022-11-19T02:16:45.650Z,98.10
2022-11-19T02:19:11.962Z,98.32
2022-11-19T02:21:38.349Z,98.66
2022-11-19T02:24:04.677Z,98.67
2022-11-19T02:26:31.060Z,98.66
2022-11-19T02:28:57.378Z,98.24
2022-11-19T02:31:23.770Z,98.36
2022-11-19T02:33:50.124Z,98.27
2022-11-19T02:36:16.504Z,98.22
2022-11-19T02:38:42.831Z,98.16
2022-11-19T02:41:09.226Z,98.11
2022-11-19T02:43:35.540Z,98.03
2022-11-19T02:46:01.956Z,98.32
2022-11-19T02:48:28.242Z,98.03
2022-11-19T02:50:54.588Z,97.37
2022-11-19T02:53:20.982Z,97.29
2022-11-19T02:55:47.322Z,97.57
2022-11-19T02:58:13.685Z,97.32
2022-11-19T03:00:40.069Z,97.30
2022-11-19T03:03:06.386Z,97.12
2022-11-19T03:05:32.775Z,97.13
2022-11-19T03:07:59.160Z,97.27
2022-11-19T03:10:25.500Z,97.57
2022-11-19T03:12:51.856Z,97.20
2022-11-19T03:15:18.228Z,97.19
2022-11-19T03:17:44.599Z,97.30
2022-11-19T03:20:10.941Z,97.65
2022-11-19T03:22:37.334Z,97.34
2022-11-19T03:25:03.730Z,97.42
2022-11-19T03:27:30.081Z,97.65
2022-11-19T03:29:56.500Z,97.15
2022-11-19T03:32:22.849Z,97.19
2022-11-19T03:34:49.228Z,97.39
2022-11-19T03:37:15.613Z,97.51
2022-11-19T03:39:41.993Z,96.85
2022-11-19T03:42:08.355Z,96.83
2022-11-19T03:44:34.739Z,97.26
2022-11-19T03:47:01.145Z,97.41
2022-11-19T03:49:27.488Z,97.53
2022-11-19T03:51:53.852Z,97.37
2022-11-19T03:54:20.258Z,97.16
2022-11-19T03:56:46.577Z,96.90
2022-11-19T03:59:12.971Z,96.93
2022-11-19T04:01:39.389Z,96.73
2022-11-19T04:04:05.730Z,96.88
2022-11-19T04:06:32.085Z,96.46
2022-11-19T04:08:58.445Z,96.33
2022-11-19T04:13:50.089Z,96.06
2022-11-19T04:16:16.452Z,95.75
2022-11-19T04:18:42.836Z,95.83
2022-11-19T04:21:09.294Z,95.73
2022-11-19T04:23:35.654Z,96.11
2022-11-19T04:26:01.970Z,95.64
2022-11-19T04:28:28.345Z,95.40
2022-11-19T04:30:54.710Z,95.45
2022-11-19T04:33:21.054Z,95.17
2022-11-19T04:35:47.397Z,95.10
2022-11-19T04:38:13.743Z,95.42
2022-11-19T04:40:40.062Z,95.60
2022-11-19T04:43:06.452Z,95.53
2022-11-19T04:45:32.773Z,95.17
2022-11-19T04:47:59.155Z,95.16
2022-11-19T04:50:25.479Z,95.05
2022-11-19T04:52:51.934Z,95.17
2022-11-19T04:55:18.214Z,95.26
2022-11-19T04:57:44.560Z,95.63
2022-11-19T05:00:10.925Z,95.51
2022-11-19T05:02:37.316Z,95.04
2022-11-19T05:05:03.749Z,94.89
2022-11-19T05:07:30.221Z,95.08
2022-11-19T05:09:56.443Z,94.91
2022-11-19T05:12:22.807Z,94.51
2022-11-19T05:14:49.137Z,94.74
2022-11-19T05:17:15.530Z,94.92
2022-11-19T05:19:41.891Z,94.92
2022-11-19T05:22:08.280Z,94.70
2022-11-19T05:24:34.640Z,94.56
2022-11-19T05:27:01.011Z,94.34
2022-11-19T05:29:27.332Z,93.93
2022-11-19T05:31:53.681Z,94.11
2022-11-19T05:34:20.051Z,94.41
2022-11-19T05:36:46.427Z,95.05
2022-11-19T05:39:16.163Z,94.98
2022-11-19T05:41:39.165Z,95.26
2022-11-19T05:44:05.520Z,95.51
2022-11-19T05:46:31.904Z,94.95
2022-11-19T05:48:58.237Z,94.32
2022-11-19T05:51:24.623Z,94.09
2022-11-19T05:53:50.990Z,94.52
2022-11-19T05:56:17.308Z,94.40
2022-11-19T05:58:43.634Z,94.61
2022-11-19T06:01:09.985Z,94.42
2022-11-19T06:03:36.344Z,94.11
2022-11-19T06:06:02.732Z,94.17
2022-11-19T06:08:29.081Z,94.40
2022-11-19T06:10:55.463Z,94.40
2022-11-19T06:13:21.795Z,94.04
2022-11-19T06:15:48.144Z,93.96
2022-11-19T06:18:14.510Z,93.98
2022-11-19T06:20:40.887Z,94.35
2022-11-19T06:23:07.213Z,94.29
2022-11-19T06:25:33.634Z,93.27
2022-11-19T06:27:59.954Z,93.22
2022-11-19T06:30:26.305Z,93.90
2022-11-19T06:32:52.634Z,93.22
2022-11-19T06:35:19.124Z,93.41
2022-11-19T06:37:45.436Z,93.57
2022-11-19T06:40:11.825Z,93.77
2022-11-19T06:42:38.212Z,93.67
2022-11-19T06:45:04.532Z,93.66
2022-11-19T06:47:30.908Z,93.81
2022-11-19T06:49:57.277Z,94.13
2022-11-19T06:52:23.601Z,94.05
2022-11-19T06:54:50.023Z,93.99
2022-11-19T06:57:16.343Z,94.19
2022-11-19T06:59:42.705Z,94.68
2022-11-19T07:02:09.128Z,95.17
2022-11-19T07:04:35.424Z,95.44
2022-11-19T07:07:01.826Z,95.15
2022-11-19T07:09:28.194Z,94.90
2022-11-19T07:11:54.505Z,94.86
2022-11-19T07:14:21.024Z,95.10
2022-11-19T07:16:47.311Z,94.58
2022-11-19T07:19:13.731Z,94.96
2022-11-19T07:21:40.061Z,94.89
2022-11-19T07:24:06.478Z,93.39
2022-11-19T07:26:32.829Z,92.79
2022-11-19T07:29:03.281Z,92.40
2022-11-19T07:31:25.546Z,92.22
2022-11-19T07:33:51.894Z,91.95
2022-11-19T07:36:18.789Z,90.74
2022-11-19T07:38:44.611Z,91.12
2022-11-19T07:41:10.938Z,91.60
2022-11-19T07:43:37.290Z,91.04
2022-11-19T07:46:03.646Z,91.32
2022-11-19T07:48:30.028Z,88.42
2022-11-19T07:50:56.743Z,87.11
2022-11-19T07:53:22.778Z,88.66
2022-11-19T07:55:49.091Z,88.27
2022-11-19T07:58:15.480Z,85.91
2022-11-19T08:00:41.793Z,83.82
2022-11-19T08:03:08.138Z,79.49
2022-11-19T08:05:34.467Z,74.90
2022-11-19T08:08:00.783Z,76.81
2022-11-19T08:10:31.538Z,77.58
2022-11-19T08:12:53.526Z,78.04
2022-11-19T08:15:19.906Z,78.58
2022-11-19T08:17:46.261Z,78.69
2022-11-19T08:20:12.678Z,75.39
2022-11-19T08:22:38.989Z,75.53
2022-11-19T08:25:05.337Z,76.08
2022-11-19T08:27:31.750Z,75.36
2022-11-19T08:29:58.131Z,75.61
2022-11-19T08:32:24.447Z,74.75
2022-11-19T08:34:50.834Z,72.61
2022-11-19T08:37:17.205Z,71.15
2022-11-19T08:39:43.626Z,70.46
2022-11-19T08:42:09.967Z,71.17
2022-11-19T08:44:36.349Z,72.08
2022-11-19T08:47:02.720Z,71.91
2022-11-19T08:49:29.060Z,71.83
2022-11-19T08:51:55.435Z,71.82
2022-11-19T08:54:22.292Z,71.48
2022-11-19T08:56:48.476Z,70.61
2022-11-19T08:59:14.853Z,70.64
2022-11-19T09:01:41.210Z,71.60
2022-11-19T09:04:07.584Z,70.98
2022-11-19T09:06:33.896Z,72.07
2022-11-19T09:09:00.245Z,72.65
2022-11-19T09:11:26.606Z,70.62
2022-11-19T09:13:52.958Z,66.95
2022-11-19T09:16:19.319Z,63.82
2022-11-19T09:18:45.693Z,64.27
2022-11-19T09:21:12.031Z,62.53
2022-11-19T09:23:38.411Z,63.38
2022-11-19T09:26:04.722Z,63.32
2022-11-19T09:28:31.081Z,62.64
2022-11-19T09:30:57.398Z,61.24
2022-11-19T09:33:23.750Z,58.51
2022-11-19T09:35:50.102Z,56.12
2022-11-19T09:38:16.482Z,57.39
2022-11-19T09:40:42.799Z,56.11
2022-11-19T09:43:13.938Z,55.46
2022-11-19T09:45:35.540Z,55.26
2022-11-19T09:48:01.876Z,54.32
2022-11-19T09:50:28.235Z,55.56
2022-11-19T09:52:54.563Z,54.39
2022-11-19T09:55:20.928Z,54.64
2022-11-19T09:57:47.283Z,53.88
2022-11-19T10:00:13.615Z,53.65
2022-11-19T10:02:40.030Z,52.21
2022-11-19T10:05:06.383Z,53.85
2022-11-19T10:07:32.830Z,51.43
2022-11-19T10:09:59.051Z,51.04
2022-11-19T10:12:25.427Z,50.67
2022-11-19T10:14:51.763Z,51.67
2022-11-19T10:17:18.121Z,50.85
2022-11-19T10:19:44.501Z,50.04
2022-11-19T10:22:10.844Z,49.64
2022-11-19T10:24:37.265Z,49.35
2022-11-19T10:27:08.544Z,51.04
2022-11-19T10:29:29.972Z,51.39
2022-11-19T10:31:56.316Z,54.07
2022-11-19T10:34:22.711Z,50.86
2022-11-19T10:36:49.084Z,51.16
2022-11-19T10:39:15.446Z,51.14
2022-11-19T10:41:41.821Z,50.80
2022-11-19T10:44:08.172Z,51.94
2022-11-19T10:46:34.526Z,51.69
2022-11-19T10:49:00.848Z,50.51
2022-11-19T10:51:27.233Z,50.27
2022-11-19T10:53:53.621Z,49.58
2022-11-19T10:56:19.953Z,48.17
2022-11-19T10:58:46.271Z,50.46
2022-11-19T11:01:12.652Z,50.72
2022-11-19T11:03:38.944Z,51.53
2022-11-19T11:06:05.353Z,52.03
2022-11-19T11:08:31.641Z,52.57
2022-11-19T11:10:58.023Z,53.03
2022-11-19T11:13:24.393Z,51.89
2022-11-19T11:15:50.803Z,51.50
2022-11-19T11:18:17.114Z,50.42
2022-11-19T11:20:43.494Z,48.66
2022-11-19T11:23:09.808Z,46.88
2022-11-19T11:25:36.161Z,46.64
2022-11-19T11:28:02.488Z,46.22
2022-11-19T11:30:28.877Z,47.83
2022-11-19T11:32:55.202Z,47.83
2022-11-19T11:35:21.542Z,47.25
2022-11-19T11:37:47.903Z,48.26
2022-11-19T11:40:14.354Z,47.98
2022-11-19T11:42:40.597Z,48.20
2022-11-19T11:45:06.938Z,46.75
2022-11-19T11:47:33.304Z,47.58
2022-11-19T11:49:59.700Z,48.94
2022-11-19T11:52:26.049Z,49.78
2022-11-19T11:54:52.390Z,49.24
2022-11-19T11:57:18.802Z,48.82
2022-11-19T11:59:45.208Z,50.18
2022-11-19T12:02:11.628Z,50.13
2022-11-19T12:04:37.984Z,50.20
2022-11-19T12:07:04.401Z,51.21
2022-11-19T12:09:30.771Z,51.87
2022-11-19T12:11:57.113Z,52.00
2022-11-19T12:14:23.447Z,53.45
2022-11-19T12:16:49.805Z,53.89
2022-11-19T12:19:16.202Z,53.65
2022-11-19T12:21:42.564Z,53.88
2022-11-19T12:24:08.905Z,53.43
2022-11-19T12:26:35.266Z,53.22
2022-11-19T12:29:01.633Z,53.67
2022-11-19T12:31:30.060Z,54.17
2022-11-19T12:33:54.370Z,54.31
2022-11-19T12:36:20.686Z,55.18
2022-11-19T12:38:47.045Z,54.54
2022-11-19T12:41:13.386Z,54.70
2022-11-19T12:43:39.753Z,54.96
2022-11-19T12:46:06.177Z,54.18
2022-11-19T12:48:32.487Z,54.81
2022-11-19T12:50:58.824Z,55.60
2022-11-19T12:53:25.196Z,55.66
2022-11-19T12:55:51.510Z,55.52
2022-11-19T12:58:17.859Z,56.30
2022-11-19T13:00:44.190Z,57.05
2022-11-19T13:03:10.752Z,57.32
2022-11-19T13:05:37.097Z,57.15
2022-11-19T13:08:03.465Z,57.48
2022-11-19T13:10:29.852Z,58.33
2022-11-19T13:12:56.220Z,58.50
2022-11-19T13:15:22.574Z,58.67
2022-11-19T13:17:48.939Z,59.23
2022-11-19T13:20:15.276Z,59.39
2022-11-19T13:22:41.633Z,59.44
2022-11-19T13:25:07.957Z,59.62
2022-11-19T13:27:34.328Z,59.75
2022-11-19T13:30:00.688Z,59.86
2022-11-19T13:32:27.063Z,60.05
2022-11-19T13:34:53.454Z,60.76
2022-11-19T13:37:19.831Z,61.10
2022-11-19T13:39:46.235Z,61.12
2022-11-19T13:42:12.530Z,61.16
2022-11-19T13:44:38.887Z,61.21
2022-11-19T13:47:05.304Z,61.58
2022-11-19T13:49:31.670Z,61.47
2022-11-19T13:51:58.047Z,61.96
2022-11-19T13:54:24.407Z,62.35
2022-11-19T13:56:50.749Z,62.46
2022-11-19T13:59:17.253Z,62.30
2022-11-19T14:01:43.546Z,62.61
2022-11-19T14:04:09.816Z,62.83
2022-11-19T14:06:36.193Z,63.18
2022-11-19T14:09:02.549Z,63.55
2022-11-19T14:11:28.921Z,63.77
2022-11-19T14:13:55.295Z,63.83
2022-11-19T14:16:21.647Z,63.84
2022-11-19T14:18:53.068Z,64.22
2022-11-19T14:21:14.358Z,64.69
2022-11-19T14:23:40.719Z,64.68
2022-11-19T14:26:07.072Z,64.72
2022-11-19T14:28:33.396Z,65.14
2022-11-19T14:30:59.764Z,65.47
2022-11-19T14:33:26.086Z,65.68
2022-11-19T14:35:52.492Z,66.31
2022-11-19T14:38:18.810Z,66.93
2022-11-19T14:40:45.181Z,66.86
2022-11-19T14:43:11.535Z,66.86
2022-11-19T14:45:37.907Z,66.89
2022-11-19T14:48:04.301Z,67.04
2022-11-19T14:50:30.644Z,67.65
2022-11-19T14:52:56.998Z,68.03
2022-11-19T14:55:23.370Z,68.06
2022-11-19T14:57:49.697Z,67.29
2022-11-19T15:00:16.073Z,67.78
2022-11-19T15:02:42.389Z,68.00
2022-11-19T15:05:08.730Z,67.94
2022-11-19T15:07:35.195Z,67.57
2022-11-19T15:10:01.532Z,67.60
2022-11-19T15:12:27.802Z,68.27
2022-11-19T15:14:54.169Z,68.23
2022-11-19T15:17:20.490Z,68.06
2022-11-19T15:19:46.859Z,67.31
2022-11-19T15:22:13.216Z,66.64
2022-11-19T15:24:39.591Z,65.75
2022-11-19T15:27:05.955Z,66.16
2022-11-19T15:29:32.317Z,65.99
2022-11-19T15:31:58.659Z,66.45
2022-11-19T15:34:25.019Z,66.71
2022-11-19T15:36:51.406Z,66.07
2022-11-19T15:39:18.362Z,65.73
2022-11-19T15:41:44.159Z,65.47
2022-11-19T15:44:10.566Z,65.16
2022-11-19T15:46:36.876Z,65.06
2022-11-19T15:49:03.243Z,65.21
2022-11-19T15:51:29.608Z,65.18
2022-11-19T15:53:55.943Z,64.07
2022-11-19T15:56:22.267Z,63.78
2022-11-19T15:58:48.607Z,63.45
2022-11-19T16:01:15.020Z,63.40
2022-11-19T16:03:41.354Z,63.50
2022-11-19T16:06:07.698Z,63.97
2022-11-19T16:08:34.058Z,63.26
2022-11-19T16:11:00.374Z,63.53
2022-11-19T16:13:26.779Z,63.85
2022-11-19T16:15:53.096Z,64.11
2022-11-19T16:18:19.471Z,64.73
2022-11-19T16:20:45.847Z,65.32
2022-11-19T16:23:12.216Z,65.44
2022-11-19T16:25:38.551Z,65.15
2022-11-19T16:28:04.902Z,65.21
2022-11-19T16:30:31.272Z,65.50
2022-11-19T16:32:57.603Z,65.83
2022-11-19T16:35:23.926Z,65.78
2022-11-19T16:37:50.376Z,66.31
2022-11-19T16:40:16.655Z,66.10
2022-11-19T16:42:43.038Z,66.34
2022-11-19T16:45:09.398Z,66.78
2022-11-19T16:47:35.742Z,66.17
2022-11-19T16:50:02.129Z,66.23
2022-11-19T16:52:28.483Z,65.91
2022-11-19T16:54:54.823Z,65.82
2022-11-19T16:57:21.232Z,65.90
2022-11-19T16:59:47.557Z,66.16
2022-11-19T17:02:13.943Z,66.23
2022-11-19T17:04:40.340Z,66.30
2022-11-19T17:07:06.743Z,66.57
2022-11-19T17:09:33.064Z,66.91
2022-11-19T17:11:59.431Z,66.87
2022-11-19T17:14:25.770Z,66.72
2022-11-19T17:16:52.149Z,66.70
2022-11-19T17:19:18.502Z,66.33
2022-11-19T17:21:44.863Z,65.85
2022-11-19T17:24:11.201Z,65.42
2022-11-19T17:26:37.550Z,65.15
2022-11-19T17:29:03.893Z,64.14
2022-11-19T17:31:30.237Z,64.16
2022-11-19T17:33:56.577Z,63.67
2022-11-19T17:36:22.952Z,63.27
2022-11-19T17:38:49.319Z,63.25
2022-11-19T17:41:15.722Z,64.59
2022-11-19T17:43:42.050Z,65.26
2022-11-19T17:46:08.400Z,65.70
2022-11-19T17:48:34.739Z,66.42
2022-11-19T17:51:01.091Z,66.11
2022-11-19T17:53:27.414Z,65.91
2022-11-19T17:55:53.779Z,66.03
2022-11-19T17:58:20.124Z,66.23
2022-11-19T18:00:46.486Z,66.51
2022-11-19T18:03:12.803Z,66.47
2022-11-19T18:05:39.219Z,67.05
2022-11-19T18:08:05.553Z,67.25
2022-11-19T18:10:31.950Z,67.66
2022-11-19T18:12:58.270Z,68.00
2022-11-19T18:15:24.636Z,67.93
2022-11-19T18:17:50.987Z,68.09
2022-11-19T18:20:17.324Z,68.62
2022-11-19T18:22:43.671Z,68.90
2022-11-19T18:25:10.039Z,69.13
2022-11-19T18:27:36.384Z,69.28
2022-11-19T18:30:02.771Z,69.44
2022-11-19T18:32:29.132Z,69.49
2022-11-19T18:34:59.212Z,69.85
2022-11-19T18:37:22.891Z,70.06
2022-11-19T18:39:49.223Z,70.09
2022-11-19T18:42:15.595Z,69.79
2022-11-19T18:44:41.933Z,69.87
2022-11-19T18:47:08.314Z,70.19
2022-11-19T18:49:34.703Z,70.39
2022-11-19T18:52:01.058Z,70.30
2022-11-19T18:54:27.418Z,70.45
2022-11-19T18:56:53.769Z,70.88
2022-11-19T18:59:20.263Z,70.80
2022-11-19T19:01:46.477Z,70.49
2022-11-19T19:04:14.456Z,70.70
2022-11-19T19:06:39.171Z,70.73
2022-11-19T19:09:05.547Z,70.76
2022-11-19T19:11:31.930Z,70.85
2022-11-19T19:13:58.257Z,70.98
2022-11-19T19:16:24.638Z,71.19
2022-11-19T19:18:50.993Z,71.08
2022-11-19T19:21:17.324Z,70.99
2022-11-19T19:23:43.708Z,70.89
2022-11-19T19:26:10.048Z,71.30
2022-11-19T19:28:36.404Z,71.60
2022-11-19T19:31:02.796Z,71.76
2022-11-19T19:33:29.139Z,71.73
2022-11-19T19:35:55.521Z,71.46
2022-11-19T19:38:21.875Z,71.98
2022-11-19T19:40:48.250Z,71.53
2022-11-19T19:43:14.566Z,71.55
2022-11-19T19:45:40.942Z,71.66
2022-11-19T19:48:07.317Z,72.17
2022-11-19T19:50:33.658Z,71.96
2022-11-19T19:52:59.980Z,71.98
2022-11-19T19:55:26.344Z,72.44
2022-11-19T19:57:52.703Z,72.45
2022-11-19T20:00:19.038Z,72.56
2022-11-19T20:02:45.421Z,72.32
2022-11-19T20:05:11.760Z,72.35
2022-11-19T20:07:38.127Z,72.34
2022-11-19T20:10:04.459Z,72.01
2022-11-19T20:12:30.785Z,71.92
2022-11-19T20:14:57.187Z,71.70
2022-11-19T20:17:23.506Z,71.98
2022-11-19T20:19:49.897Z,72.52
2022-11-19T20:22:16.236Z,72.61
2022-11-19T20:24:42.597Z,72.67
2022-11-19T20:27:08.926Z,72.82
2022-11-19T20:29:35.277Z,72.94
2022-11-19T20:32:01.658Z,72.85
2022-11-19T20:34:27.999Z,73.10
2022-11-19T20:36:54.325Z,73.29
2022-11-19T20:39:21.005Z,73.31
2022-11-19T20:41:47.085Z,73.39
2022-11-19T20:44:13.450Z,73.10
2022-11-19T20:46:39.768Z,73.44
2022-11-19T20:49:06.110Z,73.56
2022-11-19T20:51:32.469Z,73.95
2022-11-19T20:53:58.861Z,74.04
2022-11-19T20:56:25.209Z,74.12
2022-11-19T20:58:51.570Z,74.14
2022-11-19T21:01:17.916Z,74.22
2022-11-19T21:03:44.277Z,74.30
2022-11-19T21:06:10.594Z,74.82
2022-11-19T21:08:37.186Z,74.96
2022-11-19T21:11:03.334Z,74.99
2022-11-19T21:13:29.709Z,75.33
2022-11-19T21:15:56.024Z,75.66
2022-11-19T21:18:24.384Z,75.72
2022-11-19T21:20:48.692Z,75.84
2022-11-19T21:23:15.042Z,75.97
2022-11-19T21:25:41.410Z,76.12
2022-11-19T21:28:07.801Z,76.20
2022-11-19T21:30:34.197Z,76.24
2022-11-19T21:33:00.543Z,76.36
2022-11-19T21:35:26.867Z,76.62
2022-11-19T21:37:53.256Z,76.78
2022-11-19T21:40:19.584Z,76.71
2022-11-19T21:42:45.985Z,77.18
2022-11-19T21:45:12.336Z,77.47
2022-11-19T21:47:38.757Z,77.44
2022-11-19T21:50:05.118Z,77.14
2022-11-19T21:52:31.441Z,77.41
2022-11-19T21:54:57.773Z,76.60
2022-11-19T21:57:24.124Z,76.10
2022-11-19T21:59:50.481Z,75.79
2022-11-19T22:02:16.838Z,75.96
2022-11-19T22:04:43.199Z,75.95
2022-11-19T22:07:09.632Z,75.73
2022-11-19T22:09:35.943Z,75.76
2022-11-19T22:12:02.337Z,75.69
2022-11-19T22:14:28.660Z,75.64
2022-11-19T22:16:55.009Z,75.92
2022-11-19T22:19:21.417Z,75.83
2022-11-19T22:21:47.743Z,76.57
2022-11-19T22:24:14.099Z,76.62
2022-11-19T22:26:40.482Z,76.39
2022-11-19T22:29:06.866Z,76.13
2022-11-19T22:31:33.251Z,75.49
2022-11-19T22:33:59.572Z,75.29
2022-11-19T22:36:25.960Z,74.93
2022-11-19T22:38:52.378Z,75.33
2022-11-19T22:41:18.696Z,74.99
2022-11-19T22:43:45.025Z,74.21
2022-11-19T22:46:11.382Z,73.90
2022-11-19T22:48:37.703Z,73.09
2022-11-19T22:51:04.102Z,72.99
2022-11-19T22:53:30.492Z,74.06
2022-11-19T22:55:56.869Z,72.40
2022-11-19T22:58:23.189Z,70.76
2022-11-19T23:00:49.631Z,69.26
2022-11-19T23:03:15.942Z,69.43
2022-11-19T23:05:42.291Z,70.27
2022-11-19T23:08:08.613Z,69.02
2022-11-19T23:10:35.018Z,68.07
2022-11-19T23:13:01.333Z,68.53
2022-11-19T23:15:27.685Z,69.18
2022-11-19T23:17:54.051Z,70.02
2022-11-19T23:20:20.468Z,70.51
2022-11-19T23:22:46.789Z,68.99
2022-11-19T23:25:13.172Z,67.10
2022-11-19T23:27:39.501Z,65.10
2022-11-19T23:30:05.888Z,64.95
2022-11-19T23:32:32.261Z,66.93
2022-11-19T23:34:58.681Z,67.79
2022-11-19T23:37:24.993Z,67.95
2022-11-19T23:39:51.380Z,69.23
2022-11-19T23:42:17.747Z,69.14
2022-11-19T23:44:44.137Z,69.33
2022-11-19T23:47:10.499Z,69.53
2022-11-19T23:49:36.894Z,70.14
2022-11-19T23:52:03.251Z,70.25
2022-11-19T23:54:29.665Z,70.25
2022-11-19T23:56:56.033Z,70.18
2022-11-19T23:59:25.589Z,69.72
